createdAt,value
2018-03-30T00:02:16.006Z,3.95
2018-03-30T00:04:43.585Z,3.83
2018-03-30T00:07:11.118Z,4.65
2018-03-30T00:09:50.593Z,4.12
2018-03-30T00:12:18.130Z,4.30
2018-03-30T00:14:45.651Z,4.10
2018-03-30T00:17:13.189Z,3.28
2018-03-30T00:19:40.715Z,4.20
2018-03-30T00:22:08.250Z,5.87
2018-03-30T00:24:36.567Z,4.93
2018-03-30T00:27:04.096Z,3.92
2018-03-30T00:29:32.378Z,5.05
2018-03-30T00:32:00.686Z,4.30
2018-03-30T00:34:28.203Z,4.12
2018-03-30T00:36:56.485Z,4.70
2018-03-30T00:39:24.791Z,4.00
2018-03-30T00:41:52.311Z,6.57
2018-03-30T00:44:19.838Z,6.25
2018-03-30T00:46:47.354Z,4.40
2018-03-30T00:49:14.913Z,3.85
2018-03-30T00:51:43.193Z,3.87
2018-03-30T00:54:10.778Z,5.12
2018-03-30T00:56:38.298Z,6.47
2018-03-30T00:59:06.600Z,4.80
2018-03-30T01:01:34.125Z,6.05
2018-03-30T01:04:01.739Z,8.13
2018-03-30T01:06:29.301Z,5.00
2018-03-30T01:08:56.847Z,3.90
2018-03-30T01:11:24.430Z,3.45
2018-03-30T01:13:51.941Z,3.97
2018-03-30T01:16:19.477Z,4.32
2018-03-30T01:18:46.998Z,4.47
2018-03-30T01:21:14.538Z,5.20
2018-03-30T01:23:42.850Z,4.45
2018-03-30T01:26:10.384Z,5.53
2018-03-30T01:28:37.915Z,4.20
2018-03-30T01:31:05.450Z,4.00
2018-03-30T01:33:32.966Z,4.12
2018-03-30T01:36:01.272Z,4.50
2018-03-30T01:38:28.785Z,4.30
2018-03-30T01:40:57.089Z,3.53
2018-03-30T01:43:24.602Z,6.20
2018-03-30T01:45:52.141Z,3.40
2018-03-30T01:48:19.654Z,5.07
2018-03-30T01:50:47.938Z,5.40
2018-03-30T01:53:15.474Z,6.35
2018-03-30T01:55:42.985Z,5.07
2018-03-30T01:58:10.565Z,6.87
2018-03-30T02:00:38.054Z,5.30
2018-03-30T02:03:05.668Z,7.72
2018-03-30T02:05:33.222Z,6.45
2018-03-30T02:08:00.755Z,5.50
2018-03-30T02:10:29.066Z,4.20
2018-03-30T02:12:56.598Z,6.30
2018-03-30T02:15:24.872Z,8.95
2018-03-30T02:17:53.178Z,6.25
2018-03-30T02:20:20.698Z,3.80
2018-03-30T02:22:49.008Z,5.97
2018-03-30T02:25:16.525Z,8.80
2018-03-30T02:27:44.141Z,5.87
2018-03-30T02:30:11.678Z,7.03
2018-03-30T02:32:39.957Z,3.95
2018-03-30T02:35:07.490Z,5.37
2018-03-30T02:37:35.109Z,4.70
2018-03-30T02:40:02.642Z,4.65
2018-03-30T02:42:30.158Z,5.35
2018-03-30T02:44:57.701Z,5.25
2018-03-30T02:47:25.216Z,6.30
2018-03-30T02:49:53.518Z,6.32
2018-03-30T02:52:21.037Z,4.60
2018-03-30T02:54:49.343Z,4.90
2018-03-30T02:57:16.871Z,7.12
2018-03-30T02:59:44.418Z,5.82
2018-03-30T03:02:11.939Z,6.05
2018-03-30T03:04:39.460Z,4.10
2018-03-30T03:07:07.772Z,4.15
2018-03-30T03:09:35.285Z,5.22
2018-03-30T03:12:02.893Z,5.55
2018-03-30T03:14:30.459Z,8.30
2018-03-30T03:16:58.003Z,7.22
2018-03-30T03:19:25.519Z,7.62
2018-03-30T03:21:53.073Z,7.40
2018-03-30T03:24:20.603Z,6.12
2018-03-30T03:26:48.168Z,4.60
2018-03-30T03:29:15.726Z,6.12
2018-03-30T03:31:43.291Z,5.47
2018-03-30T03:34:10.801Z,5.30
2018-03-30T03:36:38.409Z,8.68
2018-03-30T03:39:05.970Z,7.47
2018-03-30T03:41:33.497Z,5.85
2018-03-30T03:44:01.818Z,8.23
2018-03-30T03:46:29.361Z,7.45
2018-03-30T03:48:56.878Z,6.55
2018-03-30T03:51:24.395Z,7.43
2018-03-30T03:53:51.930Z,8.18
2018-03-30T03:56:19.447Z,7.93
2018-03-30T03:58:46.986Z,7.87
2018-03-30T04:01:14.537Z,15.90
2018-03-30T04:03:42.101Z,8.85
2018-03-30T04:06:09.615Z,9.35
2018-03-30T04:08:37.221Z,7.53
2018-03-30T04:11:04.742Z,10.15
2018-03-30T04:13:33.045Z,8.75
2018-03-30T04:16:00.578Z,7.85
2018-03-30T04:18:28.195Z,8.73
2018-03-30T04:20:55.710Z,7.55
2018-03-30T04:23:24.023Z,5.78
2018-03-30T04:25:51.560Z,7.95
2018-03-30T04:28:19.842Z,13.75
2018-03-30T04:30:47.424Z,10.73
2018-03-30T04:33:14.940Z,14.20
2018-03-30T04:35:43.241Z,19.30
2018-03-30T04:38:10.769Z,16.95
2018-03-30T04:40:39.077Z,14.13
2018-03-30T04:43:06.594Z,11.68
2018-03-30T04:45:34.221Z,15.93
2018-03-30T04:48:01.822Z,12.50
2018-03-30T04:50:29.445Z,12.10
2018-03-30T04:52:56.964Z,11.63
2018-03-30T04:55:25.273Z,14.32
2018-03-30T04:57:52.790Z,15.70
2018-03-30T05:00:20.311Z,12.82
2018-03-30T05:02:47.854Z,10.32
2018-03-30T05:05:15.377Z,9.38
2018-03-30T05:07:42.919Z,10.00
2018-03-30T05:10:10.436Z,10.52
2018-03-30T05:12:37.971Z,12.00
2018-03-30T05:15:06.257Z,14.75
2018-03-30T05:17:34.661Z,13.10
2018-03-30T05:20:02.185Z,15.73
2018-03-30T05:22:30.500Z,18.45
2018-03-30T05:24:58.012Z,13.20
2018-03-30T05:27:25.551Z,14.02
2018-03-30T05:29:53.074Z,13.57
2018-03-30T05:32:20.620Z,13.40
2018-03-30T05:34:48.902Z,13.62
2018-03-30T05:37:17.185Z,33.15
2018-03-30T05:39:44.777Z,23.30
2018-03-30T05:42:12.314Z,19.58
2018-03-30T05:44:39.894Z,16.95
2018-03-30T05:47:07.450Z,16.67
2018-03-30T05:49:34.982Z,13.13
2018-03-30T05:52:03.265Z,16.75
2018-03-30T05:54:31.769Z,12.57
2018-03-30T05:56:59.285Z,13.77
2018-03-30T05:59:26.822Z,15.52
2018-03-30T06:01:54.349Z,16.77
2018-03-30T06:04:21.885Z,13.75
2018-03-30T06:06:50.175Z,13.82
2018-03-30T06:09:17.717Z,15.85
2018-03-30T06:11:46.001Z,14.48
2018-03-30T06:14:13.546Z,12.73
2018-03-30T06:16:41.835Z,20.27
2018-03-30T06:19:10.153Z,15.55
2018-03-30T06:21:37.810Z,17.35
2018-03-30T06:24:05.330Z,16.92
2018-03-30T06:26:33.639Z,15.40
2018-03-30T06:29:01.158Z,16.12
2018-03-30T06:31:28.710Z,22.15
2018-03-30T06:33:56.242Z,17.87
2018-03-30T06:36:23.789Z,18.20
2018-03-30T06:38:51.310Z,19.02
2018-03-30T06:41:18.849Z,20.37
2018-03-30T06:43:46.373Z,19.00
2018-03-30T06:46:13.919Z,16.65
2018-03-30T06:48:42.314Z,19.25
2018-03-30T06:51:09.853Z,20.17
2018-03-30T06:53:37.378Z,19.70
2018-03-30T06:56:04.924Z,16.15
2018-03-30T06:58:32.449Z,17.05
2018-03-30T07:01:00.018Z,15.07
2018-03-30T07:03:27.537Z,16.47
2018-03-30T07:05:55.840Z,13.43
2018-03-30T07:08:23.413Z,14.03
2018-03-30T07:10:50.974Z,17.20
2018-03-30T07:13:18.513Z,14.07
2018-03-30T07:15:46.790Z,13.63
2018-03-30T07:18:14.375Z,14.80
2018-03-30T07:20:41.894Z,14.60
2018-03-30T07:23:10.215Z,16.23
2018-03-30T07:25:37.747Z,15.40
2018-03-30T07:28:05.338Z,14.57
2018-03-30T07:30:32.857Z,12.20
2018-03-30T07:33:01.166Z,12.07
2018-03-30T07:35:28.686Z,15.60
2018-03-30T07:37:56.221Z,14.10
2018-03-30T07:40:23.753Z,14.17
2018-03-30T07:42:51.290Z,12.97
2018-03-30T07:45:18.803Z,12.33
2018-03-30T07:47:46.346Z,14.13
2018-03-30T07:50:13.868Z,11.70
2018-03-30T07:52:42.178Z,13.93
2018-03-30T07:55:09.705Z,14.33
2018-03-30T07:57:38.117Z,12.53
2018-03-30T08:00:05.681Z,13.00
2018-03-30T08:02:33.202Z,13.53
2018-03-30T08:05:01.507Z,15.00
2018-03-30T08:07:29.028Z,10.97
2018-03-30T08:09:57.334Z,11.70
2018-03-30T08:12:24.857Z,11.37
2018-03-30T08:14:52.479Z,15.47
2018-03-30T08:17:19.997Z,11.70
2018-03-30T08:19:48.300Z,11.93
2018-03-30T08:22:15.817Z,13.70
2018-03-30T08:24:44.129Z,10.73
2018-03-30T08:27:11.657Z,11.47
2018-03-30T08:29:39.278Z,11.97
2018-03-30T08:32:06.799Z,12.13
2018-03-30T08:34:35.112Z,12.87
2018-03-30T08:37:02.643Z,13.50
2018-03-30T08:39:30.950Z,11.40
2018-03-30T08:41:58.485Z,13.53
2018-03-30T08:44:26.792Z,13.83
2018-03-30T08:46:54.318Z,14.53
2018-03-30T08:49:22.661Z,11.10
2018-03-30T08:51:50.194Z,10.60
2018-03-30T08:54:17.718Z,12.23
2018-03-30T08:56:46.029Z,12.30
2018-03-30T08:59:13.554Z,12.37
2018-03-30T09:01:41.862Z,12.10
2018-03-30T09:04:09.390Z,13.53
2018-03-30T09:06:37.724Z,11.97
2018-03-30T09:09:06.050Z,11.27
2018-03-30T09:11:34.353Z,13.07
2018-03-30T09:14:01.900Z,12.70
2018-03-30T09:16:30.309Z,11.80
2018-03-30T09:18:57.864Z,12.93
2018-03-30T09:21:25.396Z,9.83
2018-03-30T09:23:53.677Z,13.00
2018-03-30T09:26:22.093Z,11.60
2018-03-30T09:28:49.609Z,14.20
2018-03-30T09:31:17.971Z,12.70
2018-03-30T09:33:45.461Z,14.83
2018-03-30T09:36:13.770Z,13.43
2018-03-30T09:38:41.297Z,14.50
2018-03-30T09:41:09.613Z,13.23
2018-03-30T09:43:37.131Z,12.47
2018-03-30T09:46:04.733Z,12.63
2018-03-30T09:48:32.290Z,11.80
2018-03-30T09:50:59.810Z,13.33
2018-03-30T09:53:27.350Z,11.93
2018-03-30T09:55:54.871Z,13.80
2018-03-30T09:58:22.424Z,15.97
2018-03-30T10:00:49.942Z,13.43
2018-03-30T10:03:17.553Z,13.30
2018-03-30T10:05:45.069Z,14.20
2018-03-30T10:08:12.673Z,12.57
2018-03-30T10:10:40.245Z,13.90
2018-03-30T10:13:07.785Z,13.40
2018-03-30T10:15:35.306Z,11.80
2018-03-30T10:18:02.851Z,13.30
2018-03-30T10:20:30.374Z,13.23
2018-03-30T10:22:57.911Z,12.80
2018-03-30T10:25:26.198Z,12.80
2018-03-30T10:27:53.752Z,13.13
2018-03-30T10:30:22.092Z,12.90
2018-03-30T10:32:49.621Z,12.43
2018-03-30T10:35:17.159Z,14.03
2018-03-30T10:37:44.683Z,14.40
2018-03-30T10:40:12.225Z,15.33
2018-03-30T10:42:39.745Z,11.83
2018-03-30T10:45:07.287Z,11.70
2018-03-30T10:47:35.862Z,12.77
2018-03-30T10:50:03.611Z,11.47
2018-03-30T10:52:31.131Z,11.07
2018-03-30T10:54:58.694Z,12.43
2018-03-30T10:57:26.258Z,10.33
2018-03-30T10:59:53.790Z,8.10
2018-03-30T11:02:22.097Z,10.97
2018-03-30T11:04:49.658Z,9.83
2018-03-30T11:07:17.174Z,10.53
2018-03-30T11:09:44.736Z,11.77
2018-03-30T11:12:13.057Z,8.90
2018-03-30T11:14:40.569Z,9.30
2018-03-30T11:17:08.173Z,9.93
2018-03-30T11:19:35.691Z,9.83
2018-03-30T11:22:03.226Z,8.53
2018-03-30T11:24:30.737Z,7.80
2018-03-30T11:26:59.044Z,5.90
2018-03-30T11:29:26.557Z,7.30
2018-03-30T11:31:54.864Z,8.27
2018-03-30T11:34:22.380Z,7.20
2018-03-30T11:36:49.909Z,7.13
2018-03-30T11:39:17.421Z,9.50
2018-03-30T11:41:45.726Z,8.00
2018-03-30T11:44:13.303Z,6.23
2018-03-30T11:46:40.861Z,7.20
2018-03-30T11:49:08.375Z,6.90
2018-03-30T11:51:35.985Z,8.70
2018-03-30T11:54:03.502Z,6.90
2018-03-30T11:56:31.825Z,5.47
2018-03-30T11:58:59.365Z,5.97
2018-03-30T12:01:26.877Z,7.20
2018-03-30T12:03:54.429Z,8.50
2018-03-30T12:06:21.945Z,6.20
2018-03-30T12:08:49.478Z,6.70
2018-03-30T12:11:16.998Z,5.10
2018-03-30T12:13:44.546Z,3.90
2018-03-30T12:16:12.057Z,3.23
2018-03-30T12:18:40.373Z,4.50
2018-03-30T12:21:07.943Z,5.20
2018-03-30T12:23:35.503Z,6.70
2018-03-30T12:26:03.020Z,5.33
2018-03-30T12:28:31.325Z,5.13
2018-03-30T12:30:58.848Z,5.63
2018-03-30T12:33:26.433Z,5.63
2018-03-30T12:35:54.709Z,5.00
2018-03-30T12:38:23.120Z,4.73
2018-03-30T12:40:50.631Z,4.83
2018-03-30T12:43:18.162Z,4.80
2018-03-30T12:45:45.676Z,5.50
2018-03-30T12:48:13.972Z,4.80
2018-03-30T12:50:41.491Z,10.33
2018-03-30T12:53:09.006Z,5.17
2018-03-30T12:55:36.541Z,4.73
2018-03-30T12:58:04.059Z,6.00
2018-03-30T13:00:32.360Z,5.50
2018-03-30T13:03:00.647Z,3.63
2018-03-30T13:05:28.944Z,5.47
2018-03-30T13:07:56.462Z,4.70
2018-03-30T13:10:23.997Z,5.60
2018-03-30T13:12:51.509Z,7.07
2018-03-30T13:15:19.808Z,4.90
2018-03-30T13:17:47.329Z,4.83
2018-03-30T13:20:14.861Z,6.13
2018-03-30T13:22:42.374Z,5.83
2018-03-30T13:25:10.666Z,6.07
2018-03-30T13:27:38.181Z,6.90
2018-03-30T13:30:05.725Z,7.93
2018-03-30T13:32:33.241Z,5.03
2018-03-30T13:35:00.774Z,5.83
2018-03-30T13:37:29.098Z,6.50
2018-03-30T13:39:56.609Z,5.57
2018-03-30T13:42:24.140Z,6.93
2018-03-30T13:44:51.654Z,5.47
2018-03-30T13:47:19.238Z,4.60
2018-03-30T13:49:46.754Z,6.17
2018-03-30T13:52:24.999Z,4.23
2018-03-30T13:54:52.517Z,5.70
2018-03-30T13:57:24.942Z,3.83
2018-03-30T13:59:53.326Z,4.20
2018-03-30T14:02:27.308Z,4.60
2018-03-30T14:07:58.441Z,4.67
2018-03-30T14:13:18.196Z,5.80
2018-03-30T14:15:50.374Z,4.50
2018-03-30T14:18:25.610Z,3.23
2018-03-30T14:21:04.802Z,3.70
2018-03-30T14:23:33.106Z,3.80
2018-03-30T14:26:06.522Z,3.60
2018-03-30T14:28:34.781Z,4.10
2018-03-30T14:33:52.767Z,2.70
2018-03-30T14:36:28.822Z,2.70
2018-03-30T14:38:57.310Z,2.63
2018-03-30T14:41:24.822Z,2.80
2018-03-30T14:44:03.797Z,3.00
2018-03-30T14:46:34.119Z,3.77
2018-03-30T14:49:05.479Z,2.67
2018-03-30T14:54:34.821Z,2.70
2018-03-30T14:57:09.805Z,3.00
2018-03-30T14:59:38.959Z,2.70
2018-03-30T15:02:14.901Z,2.27
2018-03-30T15:04:55.852Z,2.30
2018-03-30T15:07:29.786Z,2.30
2018-03-30T15:10:15.125Z,2.97
2018-03-30T15:12:46.036Z,2.67
2018-03-30T15:15:34.324Z,2.20
2018-03-30T15:18:06.450Z,2.03
2018-03-30T15:20:36.412Z,2.40
2018-03-30T15:23:09.960Z,1.50
2018-03-30T15:25:39.096Z,1.80
2018-03-30T15:28:24.901Z,2.70
2018-03-30T15:31:08.202Z,1.77
2018-03-30T15:33:37.350Z,1.50
2018-03-30T15:39:08.206Z,1.73
2018-03-30T15:41:44.401Z,2.03
2018-03-30T15:44:11.916Z,2.20
2018-03-30T15:46:43.351Z,2.23
2018-03-30T15:49:11.665Z,2.17
2018-03-30T15:51:40.910Z,1.90
2018-03-30T15:54:08.119Z,1.63
2018-03-30T15:56:36.373Z,1.80
2018-03-30T15:59:03.952Z,1.50
2018-03-30T16:01:31.518Z,1.20
2018-03-30T16:03:59.076Z,2.20
2018-03-30T16:06:26.641Z,1.03
2018-03-30T16:08:54.206Z,1.23
2018-03-30T16:11:38.454Z,1.30
2018-03-30T16:14:06.005Z,1.83
2018-03-30T16:16:33.578Z,0.90
2018-03-30T16:19:00.592Z,1.50
2018-03-30T16:21:28.406Z,1.30
2018-03-30T16:23:55.439Z,0.80
2018-03-30T16:26:22.487Z,1.23
2018-03-30T16:28:49.539Z,2.10
2018-03-30T16:31:16.601Z,1.20
2018-03-30T16:33:43.616Z,1.13
2018-03-30T16:36:11.411Z,1.93
2018-03-30T16:38:38.453Z,1.83
2018-03-30T16:41:05.488Z,1.37
2018-03-30T16:43:32.553Z,1.17
2018-03-30T16:45:59.578Z,1.80
2018-03-30T16:48:26.647Z,1.50
2018-03-30T16:50:53.676Z,1.43
2018-03-30T16:53:20.722Z,1.33
2018-03-30T16:55:47.749Z,2.37
2018-03-30T16:58:14.841Z,1.87
2018-03-30T17:00:41.892Z,1.30
2018-03-30T17:03:09.002Z,1.00
2018-03-30T17:05:36.094Z,1.00
2018-03-30T17:08:03.138Z,0.80
2018-03-30T17:10:30.161Z,1.00
2018-03-30T17:12:57.969Z,1.10
2018-03-30T17:15:24.996Z,1.17
2018-03-30T17:17:52.037Z,0.90
2018-03-30T17:20:19.101Z,1.17
2018-03-30T17:22:46.141Z,0.90
2018-03-30T17:25:13.171Z,0.73
2018-03-30T17:27:40.981Z,0.90
2018-03-30T17:30:08.008Z,1.57
2018-03-30T17:32:35.074Z,1.00
2018-03-30T17:35:02.107Z,1.10
2018-03-30T17:37:29.187Z,0.97
2018-03-30T17:39:57.126Z,1.13
2018-03-30T17:42:24.166Z,0.80
2018-03-30T17:44:52.064Z,1.00
2018-03-30T17:47:19.106Z,0.70
2018-03-30T17:49:46.152Z,0.97
2018-03-30T17:52:13.174Z,1.00
2018-03-30T17:54:40.990Z,0.83
2018-03-30T17:57:08.015Z,1.63
2018-03-30T17:59:35.058Z,1.47
2018-03-30T18:02:02.108Z,1.00
2018-03-30T18:04:29.906Z,1.40
2018-03-30T18:06:56.929Z,0.70
2018-03-30T18:09:23.988Z,12.00
2018-03-30T18:11:51.042Z,0.73
2018-03-30T18:14:18.085Z,1.13
2018-03-30T18:16:45.106Z,0.83
2018-03-30T18:19:12.915Z,1.23
2018-03-30T18:21:39.934Z,2.87
2018-03-30T18:24:07.747Z,1.50
2018-03-30T18:26:34.770Z,1.10
2018-03-30T18:29:01.923Z,1.17
2018-03-30T18:31:28.953Z,0.87
2018-03-30T18:33:55.978Z,1.63
2018-03-30T18:36:23.787Z,1.23
2018-03-30T18:38:50.814Z,1.03
2018-03-30T18:41:17.881Z,1.47
2018-03-30T18:43:44.902Z,1.10
2018-03-30T18:46:12.721Z,1.10
2018-03-30T18:48:39.737Z,1.00
2018-03-30T18:51:06.775Z,1.27
2018-03-30T18:53:33.794Z,1.50
2018-03-30T18:56:00.846Z,2.60
2018-03-30T18:58:28.644Z,1.33
2018-03-30T19:00:55.695Z,1.40
2018-03-30T19:03:22.758Z,1.00
2018-03-30T19:05:49.902Z,3.20
2018-03-30T19:08:16.932Z,1.57
2018-03-30T19:10:43.980Z,0.97
2018-03-30T19:13:11.050Z,1.80
2018-03-30T19:15:38.102Z,1.20
2018-03-30T19:18:05.166Z,2.27
2018-03-30T19:20:32.408Z,1.63
2018-03-30T19:22:59.432Z,0.77
2018-03-30T19:25:26.498Z,0.93
2018-03-30T19:27:53.540Z,0.90
2018-03-30T19:30:20.579Z,1.10
2018-03-30T19:32:47.633Z,1.40
2018-03-30T19:35:14.649Z,1.30
2018-03-30T19:37:42.453Z,2.40
2018-03-30T19:40:09.469Z,0.80
2018-03-30T19:42:37.277Z,1.17
2018-03-30T19:45:04.306Z,0.80
2018-03-30T19:47:31.345Z,1.07
2018-03-30T19:49:59.130Z,1.40
2018-03-30T19:52:26.196Z,1.83
2018-03-30T19:54:53.212Z,1.23
2018-03-30T19:57:21.109Z,1.30
2018-03-30T19:59:48.134Z,1.37
2018-03-30T20:02:15.937Z,1.10
2018-03-30T20:04:42.971Z,0.83
2018-03-30T20:07:10.024Z,1.23
2018-03-30T20:09:37.050Z,1.60
2018-03-30T20:12:04.121Z,1.10
2018-03-30T20:14:31.172Z,1.63
2018-03-30T20:16:58.197Z,1.20
2018-03-30T20:19:25.246Z,1.57
2018-03-30T20:21:52.276Z,1.53
2018-03-30T20:24:20.086Z,1.37
2018-03-30T20:26:47.104Z,1.37
2018-03-30T20:29:14.165Z,1.83
2018-03-30T20:31:41.196Z,2.03
2018-03-30T20:34:09.005Z,1.83
2018-03-30T20:36:36.040Z,2.13
2018-03-30T20:39:03.094Z,1.67
2018-03-30T20:41:30.139Z,2.43
2018-03-30T20:43:57.187Z,1.87
2018-03-30T20:46:24.214Z,1.60
2018-03-30T20:48:52.018Z,2.77
2018-03-30T20:51:19.045Z,3.10
2018-03-30T20:53:46.076Z,2.20
2018-03-30T20:56:13.120Z,4.00
2018-03-30T20:58:41.523Z,5.17
2018-03-30T21:01:08.575Z,3.13
2018-03-30T21:03:35.598Z,2.60
2018-03-30T21:06:03.405Z,2.30
2018-03-30T21:08:30.477Z,1.77
2018-03-30T21:10:57.482Z,1.50
2018-03-30T21:13:24.510Z,2.07
2018-03-30T21:15:51.589Z,2.10
2018-03-30T21:18:18.617Z,1.60
2018-03-30T21:20:45.660Z,1.77
2018-03-30T21:23:13.444Z,1.97
2018-03-30T21:25:40.481Z,3.20
2018-03-30T21:28:07.602Z,5.03
2018-03-30T21:30:34.611Z,5.03
2018-03-30T21:33:01.631Z,2.67
2018-03-30T21:35:28.693Z,2.87
2018-03-30T21:37:55.751Z,7.33
2018-03-30T21:40:22.777Z,1.70
2018-03-30T21:42:49.857Z,3.00
2018-03-30T21:45:16.883Z,2.47
2018-03-30T21:47:43.928Z,2.80
2018-03-30T21:50:10.957Z,3.10
2018-03-30T21:52:38.778Z,2.47
2018-03-30T21:55:05.834Z,3.57
2018-03-30T21:57:32.857Z,4.13
2018-03-30T21:59:59.889Z,2.63
2018-03-30T22:02:26.947Z,4.97
2018-03-30T22:04:53.964Z,7.30
2018-03-30T22:07:21.774Z,5.30
2018-03-30T22:09:48.816Z,5.17
2018-03-30T22:12:15.971Z,9.30
2018-03-30T22:14:43.003Z,5.07
2018-03-30T22:17:10.031Z,4.40
2018-03-30T22:19:37.847Z,6.20
2018-03-30T22:22:04.980Z,5.90
2018-03-30T22:24:32.030Z,6.47
2018-03-30T22:26:59.056Z,6.63
2018-03-30T22:29:26.101Z,4.00
2018-03-30T22:31:53.125Z,4.77
2018-03-30T22:34:20.225Z,5.80
2018-03-30T22:36:47.240Z,4.47
2018-03-30T22:39:15.053Z,4.20
2018-03-30T22:41:42.087Z,4.13
2018-03-30T22:44:09.138Z,5.00
2018-03-30T22:46:36.161Z,4.43
2018-03-30T22:49:03.219Z,4.13
2018-03-30T22:51:30.282Z,5.30
2018-03-30T22:53:57.318Z,6.10
2018-03-30T22:56:24.337Z,7.03
2018-03-30T22:58:52.149Z,4.13
2018-03-30T23:01:19.168Z,5.40
2018-03-30T23:03:46.955Z,7.70
2018-03-30T23:06:13.993Z,4.50
2018-03-30T23:08:41.507Z,6.00
2018-03-30T23:11:09.337Z,4.07
2018-03-30T23:13:36.363Z,5.17
2018-03-30T23:16:03.404Z,3.90
2018-03-30T23:18:31.185Z,3.90
2018-03-30T23:20:58.230Z,4.17
2018-03-30T23:23:25.278Z,5.40
2018-03-30T23:25:52.346Z,5.20
2018-03-30T23:28:19.369Z,5.53
2018-03-30T23:30:47.174Z,4.83
2018-03-30T23:33:14.193Z,6.93
2018-03-30T23:35:41.252Z,5.13
2018-03-30T23:38:08.269Z,4.03
2018-03-30T23:40:36.077Z,4.00
2018-03-30T23:43:03.102Z,4.33
2018-03-30T23:45:30.150Z,6.30
2018-03-30T23:47:57.181Z,5.40
2018-03-30T23:50:25.095Z,7.00
2018-03-30T23:52:52.121Z,5.37
2018-03-30T23:55:19.193Z,6.23
2018-03-30T23:57:46.243Z,6.70
